< < Back
Terminal Aerodrome Forecast


Current Version              Previous Versions:   1  2  3  4  5  6  7  8  9  

Terminal Aerodrome Forecast

775
FTUS44 KBMX 191307 AAA
TAFBHM
TAF AMD
KBHM 191307Z 1913/2012 22008KT P6SM BKN050
      TEMPO 1913/1914 3SM SHRA BR BKN010=

Latest METAR

774
SAUS70 KWBC 192100 RRB
MTRBHM
METAR KBHM 192053Z 22006KT 8SM -TSRA FEW041CB BKN070 OVC110 24/18 A2967
RMK AO2 RAB47 TSB40 SLP041 OCNL LTGIC W TS W MOV E P0001
60001 T02390178 56027


USA.gov is the U.S. government's official web portal to all federal, state and local government web resources and services.